Time;durP1;ratioP1;P1;durP2;ratioP2;P2;SDS_P1;SDS_P2;PMS_P1;PMS_P2;Temp;Humidity;BMP_temperature;BMP_pressure;BME280_temperature;BME280_humidity;BME280_pressure;Samples;Min_cycle;Max_cycle;Signal;HPM_P1;HPM_P2
2021/10/01 00:01:04;;;;;;;65.13;42.33;;;6.50;87.30;;;;;;5057434;28;20028;-81
2021/10/01 00:03:29;;;;;;;63.30;42.38;;;6.40;87.40;;;;;;5058753;28;20025;-80
2021/10/01 00:05:55;;;;;;;63.42;40.10;;;6.40;88.00;;;;;;5058102;28;20086;-81
2021/10/01 00:08:21;;;;;;;63.15;39.28;;;6.40;88.30;;;;;;5076234;28;20045;-80
2021/10/01 00:10:47;;;;;;;65.55;41.05;;;6.40;88.40;;;;;;5058733;28;20107;-80
2021/10/01 00:13:12;;;;;;;68.15;43.08;;;6.40;88.40;;;;;;5058202;28;20028;-80
2021/10/01 00:15:38;;;;;;;66.40;42.50;;;6.40;88.00;;;;;;5057300;28;20095;-81
2021/10/01 00:18:05;;;;;;;70.55;45.10;;;6.30;87.90;;;;;;5056318;28;20145;-80
2021/10/01 00:20:31;;;;;;;74.80;48.05;;;6.30;88.90;;;;;;5056491;28;20032;-81
2021/10/01 00:22:57;;;;;;;71.30;46.70;;;6.30;89.70;;;;;;5057746;28;20142;-81
2021/10/01 00:25:23;;;;;;;76.03;49.38;;;6.20;90.20;;;;;;5075157;28;20039;-79
2021/10/01 00:27:48;;;;;;;78.50;50.75;;;6.20;90.40;;;;;;5095206;28;20128;-78
2021/10/01 00:30:14;;;;;;;72.40;47.85;;;6.10;90.40;;;;;;5094629;28;20032;-81
2021/10/01 00:32:40;;;;;;;76.80;48.67;;;6.00;90.20;;;;;;5075952;28;20466;-76
2021/10/01 00:35:06;;;;;;;70.43;47.25;;;6.00;90.20;;;;;;5093753;28;20481;-80
2021/10/01 00:37:32;;;;;;;74.97;47.13;;;5.90;90.30;;;;;;5075835;28;20496;-80
2021/10/01 00:39:57;;;;;;;67.90;45.65;;;6.00;90.30;;;;;;5093630;28;20102;-77
2021/10/01 00:42:23;;;;;;;74.20;49.22;;;5.90;90.20;;;;;;5094334;28;20024;-81
2021/10/01 00:44:49;;;;;;;68.40;47.30;;;5.90;90.20;;;;;;5070113;28;20382;-77
2021/10/01 00:47:15;;;;;;;72.35;46.95;;;5.80;90.40;;;;;;5070988;28;20434;-80
2021/10/01 00:49:41;;;;;;;77.72;48.78;;;5.80;90.30;;;;;;5075785;28;20100;-81
2021/10/01 00:52:08;;;;;;;72.88;45.72;;;5.80;90.10;;;;;;5075851;28;20024;-81
2021/10/01 00:54:35;;;;;;;74.78;49.63;;;5.70;90.10;;;;;;5075602;28;20466;-80
2021/10/01 00:57:02;;;;;;;71.22;44.55;;;5.70;90.10;;;;;;5093746;28;20028;-80
2021/10/01 00:59:28;;;;;;;69.32;45.80;;;5.70;90.50;;;;;;5075558;28;20464;-80
2021/10/01 01:01:54;;;;;;;73.38;45.35;;;5.70;91.00;;;;;;5079752;28;20063;-80
2021/10/01 01:04:20;;;;;;;75.50;45.88;;;5.80;90.60;;;;;;5059661;28;20078;-79
2021/10/01 01:07:10;;;;;;;70.68;46.03;;;5.70;90.30;;;;;;5059644;28;20077;-80
2021/10/01 01:10:04;;;;;;;72.00;45.65;;;5.70;90.00;;;;;;5061027;28;20040;-81
2021/10/01 01:12:46;;;;;;;74.32;47.60;;;5.70;90.00;;;;;;5059628;28;20029;-80
2021/10/01 01:15:41;;;;;;;73.32;46.50;;;5.70;90.30;;;;;;5058420;28;20056;-80
2021/10/01 01:18:23;;;;;;;75.25;47.85;;;5.70;90.40;;;;;;5043270;28;20044;-81
2021/10/01 01:20:51;;;;;;;71.03;45.97;;;5.70;90.50;;;;;;5066640;28;20029;-80
2021/10/01 01:23:32;;;;;;;74.95;47.40;;;5.70;90.90;;;;;;5045201;28;20047;-80
2021/10/01 01:26:10;;;;;;;76.20;49.45;;;5.70;91.00;;;;;;5053280;28;20379;-81
2021/10/01 01:28:54;;;;;;;71.90;47.63;;;5.70;91.10;;;;;;5077213;28;20071;-80
2021/10/01 01:31:44;;;;;;;87.40;55.55;;;5.70;90.90;;;;;;5077076;28;20363;-80
2021/10/01 01:34:32;;;;;;;116.03;73.03;;;5.70;90.80;;;;;;5059128;28;20367;-80
2021/10/01 01:37:05;;;;;;;110.88;70.32;;;5.60;90.90;;;;;;5075525;28;20090;-80
2021/10/01 01:39:33;;;;;;;88.20;59.75;;;5.60;91.00;;;;;;5058834;28;20035;-80
2021/10/01 01:42:00;;;;;;;87.88;59.78;;;5.60;91.00;;;;;;5058854;28;20039;-80
2021/10/01 01:44:27;;;;;;;85.90;57.35;;;5.60;91.00;;;;;;5077101;28;20068;-80
2021/10/01 01:46:55;;;;;;;100.50;63.08;;;5.60;91.00;;;;;;5058645;28;20451;-79
2021/10/01 01:49:22;;;;;;;105.90;65.05;;;5.60;91.20;;;;;;5059267;28;20467;-80
2021/10/01 01:51:49;;;;;;;103.22;66.57;;;5.60;91.70;;;;;;5059076;28;20028;-80
2021/10/01 01:54:17;;;;;;;89.50;59.97;;;5.70;91.80;;;;;;5058477;28;20528;-81
2021/10/01 01:56:43;;;;;;;96.78;57.63;;;5.60;91.90;;;;;;5058651;28;20037;-81
2021/10/01 01:59:09;;;;;;;86.65;54.92;;;5.60;91.60;;;;;;5076471;28;20025;-82
2021/10/01 02:01:36;;;;;;;85.82;54.75;;;5.60;91.10;;;;;;5059094;28;20028;-80
2021/10/01 02:04:03;;;;;;;87.88;53.92;;;5.50;90.90;;;;;;5058574;28;20029;-81
2021/10/01 02:06:30;;;;;;;86.43;51.88;;;5.50;90.90;;;;;;5058081;28;20052;-81
2021/10/01 02:08:59;;;;;;;80.57;51.58;;;5.50;90.80;;;;;;5076521;28;20067;-80
2021/10/01 02:11:26;;;;;;;85.70;53.95;;;5.50;90.70;;;;;;5075679;28;20036;-80
2021/10/01 02:13:53;;;;;;;83.55;55.25;;;5.40;90.40;;;;;;5076528;28;20459;-81
2021/10/01 02:16:20;;;;;;;86.53;54.70;;;5.30;90.40;;;;;;5075977;28;20082;-80
2021/10/01 02:18:48;;;;;;;87.32;54.72;;;5.30;90.60;;;;;;5074910;28;20020;-82
2021/10/01 02:21:15;;;;;;;89.57;56.58;;;5.30;90.70;;;;;;5076381;28;20024;-80
2021/10/01 02:23:41;;;;;;;85.80;55.03;;;5.20;90.90;;;;;;5076239;28;20025;-80
2021/10/01 02:28:59;;;;;;;91.47;57.10;;;5.20;91.00;;;;;;5075853;28;20078;-81
2021/10/01 02:31:33;;;;;;;85.05;55.47;;;5.20;91.00;;;;;;5076423;28;20031;-81
2021/10/01 02:34:02;;;;;;;86.65;55.58;;;5.20;91.00;;;;;;5074694;28;20028;-81
2021/10/01 02:36:28;;;;;;;86.53;55.75;;;5.10;90.90;;;;;;5080994;28;20016;-80
2021/10/01 02:38:54;;;;;;;87.25;56.67;;;5.10;90.90;;;;;;5095805;28;20027;-80
2021/10/01 02:41:20;;;;;;;85.28;53.67;;;5.10;91.10;;;;;;5078133;28;20024;-79
2021/10/01 02:43:45;;;;;;;78.28;52.53;;;5.10;91.20;;;;;;5077736;28;20458;-79
2021/10/01 02:46:11;;;;;;;90.30;51.80;;;5.10;91.20;;;;;;5078245;28;20386;-80
2021/10/01 02:48:37;;;;;;;83.32;54.13;;;5.10;91.00;;;;;;5095569;28;20052;-80
2021/10/01 02:51:08;;;;;;;84.38;51.83;;;5.00;91.20;;;;;;5078030;28;20035;-81
2021/10/01 02:53:45;;;;;;;81.45;53.47;;;5.00;91.10;;;;;;5079702;28;20050;-80
2021/10/01 02:56:23;;;;;;;82.72;52.95;;;5.00;91.20;;;;;;5083517;28;20032;-80
2021/10/01 02:58:56;;;;;;;83.15;52.30;;;4.90;91.30;;;;;;5065319;28;20057;-80
2021/10/01 03:01:23;;;;;;;84.72;53.35;;;4.90;91.50;;;;;;5054104;28;20538;-79
2021/10/01 03:03:51;;;;;;;80.88;52.67;;;4.80;91.20;;;;;;5079315;28;20051;-80
2021/10/01 03:06:20;;;;;;;85.60;54.15;;;4.70;91.20;;;;;;5079710;28;20075;-77
2021/10/01 03:08:48;;;;;;;83.35;51.83;;;4.70;91.40;;;;;;5080633;28;20521;-79
2021/10/01 03:11:15;;;;;;;87.60;54.22;;;4.70;91.40;;;;;;5094435;28;20027;-80
2021/10/01 03:13:44;;;;;;;88.78;54.05;;;4.70;91.40;;;;;;5076927;28;20114;-79
2021/10/01 03:16:11;;;;;;;86.43;55.63;;;4.80;91.50;;;;;;5095113;28;20031;-80
2021/10/01 03:18:37;;;;;;;90.90;56.97;;;4.80;91.40;;;;;;5095438;28;20034;-78
2021/10/01 03:21:05;;;;;;;88.85;54.25;;;4.70;91.40;;;;;;5095230;28;20028;-80
2021/10/01 03:23:31;;;;;;;82.95;54.28;;;4.70;91.40;;;;;;5095081;28;20043;-81
2021/10/01 03:25:56;;;;;;;87.28;54.05;;;4.70;91.20;;;;;;5094109;28;20413;-80
2021/10/01 03:28:22;;;;;;;88.97;58.28;;;4.70;91.10;;;;;;5076638;28;20024;-81
2021/10/01 03:30:49;;;;;;;83.13;52.67;;;4.60;91.00;;;;;;5076592;28;20020;-81
2021/10/01 03:33:16;;;;;;;82.13;54.42;;;4.60;90.90;;;;;;5077524;28;20028;-81
2021/10/01 03:35:43;;;;;;;87.63;53.97;;;4.60;90.70;;;;;;5094693;28;20043;-81
2021/10/01 03:38:13;;;;;;;83.25;58.10;;;4.50;90.80;;;;;;5095245;28;20112;-81
2021/10/01 03:40:43;;;;;;;96.97;62.45;;;4.50;91.90;;;;;;5076545;28;20035;-81
2021/10/01 03:43:10;;;;;;;102.53;66.05;;;4.60;92.30;;;;;;5094790;28;20028;-80
2021/10/01 03:45:36;;;;;;;98.03;61.80;;;4.70;92.20;;;;;;5094857;28;20145;-81
2021/10/01 03:48:03;;;;;;;93.15;59.00;;;4.70;92.10;;;;;;5095285;28;20526;-81
2021/10/01 03:50:30;;;;;;;88.20;55.80;;;4.70;92.10;;;;;;5093494;28;20402;-80
2021/10/01 03:52:56;;;;;;;80.25;54.47;;;4.60;91.90;;;;;;5094662;28;20530;-80
2021/10/01 03:55:22;;;;;;;92.57;54.03;;;4.60;91.80;;;;;;5076178;28;20122;-80
2021/10/01 03:57:49;;;;;;;95.53;56.22;;;4.60;91.60;;;;;;5076045;28;20094;-81
2021/10/01 04:00:15;;;;;;;81.75;53.78;;;4.60;91.60;;;;;;5076307;28;20046;-80
2021/10/01 04:02:41;;;;;;;83.97;52.78;;;4.60;91.60;;;;;;5094827;28;20024;-82
2021/10/01 04:05:07;;;;;;;87.30;52.67;;;4.70;91.60;;;;;;5094360;28;20024;-81
2021/10/01 04:07:33;;;;;;;83.18;54.28;;;4.70;91.60;;;;;;5093839;28;20071;-81
2021/10/01 04:09:58;;;;;;;86.43;55.22;;;4.80;91.50;;;;;;5093984;28;20040;-82
2021/10/01 04:12:24;;;;;;;77.35;51.72;;;5.00;92.00;;;;;;5075891;28;20035;-82
2021/10/01 04:14:50;;;;;;;80.50;51.60;;;5.20;92.70;;;;;;5079745;28;20097;-82
2021/10/01 04:17:16;;;;;;;81.55;51.10;;;5.50;92.70;;;;;;5055886;28;20411;-78
2021/10/01 04:19:42;;;;;;;79.55;50.47;;;5.90;92.30;;;;;;5073745;28;20021;-83
2021/10/01 04:22:08;;;;;;;78.97;50.47;;;6.30;91.60;;;;;;5074423;28;20021;-83
2021/10/01 04:24:34;;;;;;;82.35;49.72;;;6.80;90.90;;;;;;5074516;28;20039;-83
2021/10/01 04:27:00;;;;;;;85.60;50.58;;;7.30;90.10;;;;;;5074338;28;20028;-83
2021/10/01 04:29:26;;;;;;;79.57;47.65;;;7.70;88.10;;;;;;5055613;28;20024;-83
2021/10/01 04:31:52;;;;;;;92.80;51.25;;;8.10;86.00;;;;;;5074187;28;20017;-85
2021/10/01 04:34:18;;;;;;;78.15;49.47;;;8.50;83.90;;;;;;5074146;28;20490;-80
2021/10/01 04:36:44;;;;;;;91.93;46.90;;;8.80;81.70;;;;;;5060707;28;20033;-78
2021/10/01 04:39:11;;;;;;;83.70;43.55;;;9.20;79.80;;;;;;5060276;28;20034;-84
2021/10/01 04:41:36;;;;;;;67.38;41.88;;;9.50;78.50;;;;;;5066856;28;20443;-82
2021/10/01 04:44:02;;;;;;;78.05;42.92;;;9.90;77.30;;;;;;5096635;28;20021;-85
2021/10/01 04:46:28;;;;;;;76.80;44.70;;;10.30;76.00;;;;;;5076502;28;20027;-83
2021/10/01 04:48:55;;;;;;;73.15;42.10;;;10.60;74.60;;;;;;5062116;28;20044;-83
2021/10/01 04:51:21;;;;;;;78.47;43.25;;;10.90;73.70;;;;;;5074140;28;20052;-83
2021/10/01 04:53:47;;;;;;;72.40;42.00;;;11.30;72.80;;;;;;5062504;28;20464;-80
2021/10/01 04:56:14;;;;;;;74.22;41.20;;;11.80;71.60;;;;;;5053360;28;20029;-86
2021/10/01 04:58:40;;;;;;;65.53;42.63;;;12.20;70.90;;;;;;5036126;28;20024;-84
2021/10/01 05:01:06;;;;;;;68.35;41.35;;;12.60;69.00;;;;;;5036522;28;20056;-85
2021/10/01 05:03:31;;;;;;;82.63;44.72;;;13.00;67.90;;;;;;5036000;28;20370;-85
2021/10/01 05:05:57;;;;;;;69.45;43.88;;;13.40;66.70;;;;;;5047291;28;20082;-84
2021/10/01 05:08:23;;;;;;;72.55;43.97;;;13.70;65.70;;;;;;5074213;28;20391;-84
2021/10/01 05:10:48;;;;;;;79.95;45.10;;;14.00;64.80;;;;;;5072877;28;20024;-84
2021/10/01 05:13:14;;;;;;;91.57;48.58;;;14.30;64.30;;;;;;5055164;28;20039;-85
2021/10/01 05:15:42;;;;;;;81.28;47.33;;;14.70;63.40;;;;;;5055265;28;20032;-85
2021/10/01 05:18:09;;;;;;;85.28;48.45;;;15.20;62.70;;;;;;5073271;28;20021;-86
2021/10/01 05:20:35;;;;;;;82.65;47.05;;;15.50;61.80;;;;;;5055585;28;20055;-84
2021/10/01 05:23:01;;;;;;;89.00;50.47;;;15.90;61.10;;;;;;5055256;28;20020;-80
2021/10/01 05:25:27;;;;;;;86.90;45.72;;;16.30;60.20;;;;;;5072910;28;20031;-78
2021/10/01 05:27:54;;;;;;;79.63;45.47;;;16.70;59.80;;;;;;5073097;28;20028;-76
2021/10/01 05:30:19;;;;;;;91.82;49.15;;;17.10;59.10;;;;;;5072830;28;20119;-80
2021/10/01 05:32:45;;;;;;;76.75;46.13;;;17.50;58.70;;;;;;5073154;28;20064;-79
2021/10/01 05:35:11;;;;;;;71.00;45.22;;;17.80;58.30;;;;;;5073004;28;20037;-81
2021/10/01 05:37:37;;;;;;;71.53;43.70;;;18.10;57.70;;;;;;5054775;28;20070;-84
2021/10/01 05:40:04;;;;;;;72.70;44.65;;;18.40;57.30;;;;;;5054751;28;20033;-81
2021/10/01 05:42:30;;;;;;;84.82;47.45;;;18.70;56.50;;;;;;5073002;28;20028;-78
2021/10/01 05:44:55;;;;;;;74.25;46.45;;;19.00;56.10;;;;;;5072277;28;20052;-80
2021/10/01 05:47:21;;;;;;;80.13;44.47;;;19.30;55.70;;;;;;5056755;28;20459;-81
2021/10/01 05:49:48;;;;;;;90.25;46.63;;;19.70;55.30;;;;;;5058834;28;20382;-83
2021/10/01 05:54:48;;;;;;;74.95;36.60;;;20.10;54.40;;;;;;5077215;28;20067;-80
2021/10/01 05:57:14;;;;;;;87.10;43.42;;;20.40;54.00;;;;;;5079202;28;20070;-80
2021/10/01 05:59:42;;;;;;;36.85;21.58;;;20.70;53.60;;;;;;5077816;28;20028;-79
2021/10/01 06:02:13;;;;;;;51.78;25.38;;;20.90;53.20;;;;;;5054178;28;20378;-80
2021/10/01 06:04:40;;;;;;;50.88;26.65;;;21.20;52.60;;;;;;5057275;28;20424;-80
2021/10/01 06:07:06;;;;;;;37.97;21.80;;;21.40;52.30;;;;;;5057053;28;20425;-81
2021/10/01 06:09:32;;;;;;;45.00;22.15;;;21.50;51.70;;;;;;5056156;28;20089;-80
2021/10/01 06:11:58;;;;;;;21.67;11.80;;;21.70;51.80;;;;;;5073744;28;20028;-79
2021/10/01 06:14:25;;;;;;;18.92;11.55;;;21.80;51.30;;;;;;5074075;28;20028;-69
2021/10/01 06:16:52;;;;;;;12.93;9.38;;;22.00;51.10;;;;;;5058002;28;20032;-71
2021/10/01 06:19:18;;;;;;;15.88;9.40;;;22.10;50.60;;;;;;5057935;28;20033;-72
2021/10/01 06:21:44;;;;;;;10.98;8.50;;;22.20;50.80;;;;;;5075992;28;20791;-70
2021/10/01 06:24:10;;;;;;;12.00;8.40;;;22.30;50.20;;;;;;5059079;28;20035;-72
2021/10/01 06:26:35;;;;;;;11.48;8.38;;;22.40;50.30;;;;;;5077844;28;20486;-71
2021/10/01 06:29:02;;;;;;;11.85;7.88;;;22.50;50.00;;;;;;5078576;28;20119;-80
2021/10/01 06:31:27;;;;;;;11.82;7.72;;;22.60;50.00;;;;;;5079651;28;20338;-82
2021/10/01 06:33:53;;;;;;;11.32;7.55;;;22.80;49.90;;;;;;5060884;28;20111;-82
2021/10/01 06:36:23;;;;;;;11.50;7.78;;;23.00;49.50;;;;;;5076086;28;20033;-83
2021/10/01 06:38:50;;;;;;;12.38;7.43;;;23.30;48.60;;;;;;5082857;28;20024;-82
2021/10/01 06:41:16;;;;;;;13.60;9.32;;;23.40;48.00;;;;;;5060642;28;20025;-81
2021/10/01 06:43:43;;;;;;;15.35;8.48;;;23.40;47.70;;;;;;5090301;28;20032;-83
2021/10/01 06:46:21;;;;;;;11.23;7.78;;;23.40;47.40;;;;;;5095748;28;20024;-83
2021/10/01 06:48:59;;;;;;;13.90;8.35;;;23.40;47.20;;;;;;5095573;28;20020;-83
2021/10/01 06:51:46;;;;;;;13.07;8.20;;;23.50;47.20;;;;;;5076960;28;20138;-83
2021/10/01 07:35:58;;;;;;;13.13;8.60;;;25.70;44.00;;;;;;5094845;28;20086;-84
2021/10/01 08:19:36;;;;;;;9.90;7.93;;;26.90;43.10;;;;;;5075456;28;20386;-84
2021/10/01 08:22:02;;;;;;;9.85;7.03;;;27.00;43.10;;;;;;5057520;28;20266;-82
2021/10/01 08:24:29;;;;;;;11.65;7.60;;;27.10;42.30;;;;;;5081209;28;20077;-82
2021/10/01 08:26:55;;;;;;;12.02;8.20;;;27.10;42.20;;;;;;5094014;28;20059;-84
2021/10/01 08:29:22;;;;;;;13.02;7.45;;;27.10;42.50;;;;;;5076054;28;20063;-85
2021/10/01 08:31:49;;;;;;;10.82;7.60;;;27.00;42.10;;;;;;5093950;28;20028;-84
2021/10/01 08:34:16;;;;;;;11.33;7.67;;;27.10;42.40;;;;;;5094091;28;20149;-84
2021/10/01 08:36:42;;;;;;;11.98;7.70;;;27.10;42.40;;;;;;5075873;28;20122;-82
2021/10/01 08:39:09;;;;;;;10.40;7.32;;;27.20;42.40;;;;;;5093905;28;20100;-83
2021/10/01 08:41:36;;;;;;;11.27;7.60;;;27.20;42.00;;;;;;5093736;28;20424;-84
2021/10/01 08:44:02;;;;;;;9.45;6.95;;;27.30;42.00;;;;;;5093823;28;20047;-81
2021/10/01 08:46:29;;;;;;;10.98;7.30;;;27.40;41.30;;;;;;5089109;28;20024;-83
2021/10/01 08:48:59;;;;;;;10.68;6.68;;;27.00;40.90;;;;;;5073620;28;20368;-82
2021/10/01 08:51:25;;;;;;;11.85;6.70;;;26.90;41.90;;;;;;5073574;28;20378;-82
2021/10/01 08:53:53;;;;;;;12.52;7.40;;;26.90;41.50;;;;;;5073553;28;20493;-83
2021/10/01 08:56:19;;;;;;;10.98;6.88;;;26.80;42.30;;;;;;5073448;28;20063;-84
2021/10/01 08:58:46;;;;;;;9.95;6.35;;;27.00;41.40;;;;;;5055444;28;20031;-84
2021/10/01 09:01:12;;;;;;;12.45;7.25;;;27.10;40.30;;;;;;5074044;28;20059;-84
2021/10/01 09:03:41;;;;;;;9.43;5.60;;;26.90;40.60;;;;;;5073469;28;20024;-83
2021/10/01 09:06:07;;;;;;;11.52;6.25;;;26.90;39.50;;;;;;5055422;28;20028;-82
2021/10/01 09:08:34;;;;;;;10.77;6.75;;;26.80;38.80;;;;;;5073703;28;20379;-84
2021/10/01 09:11:04;;;;;;;14.15;6.47;;;26.70;39.10;;;;;;5055974;28;20031;-84
2021/10/01 09:13:33;;;;;;;8.85;6.05;;;26.50;38.20;;;;;;5073597;28;20509;-84
2021/10/01 09:16:11;;;;;;;11.98;6.82;;;26.40;37.70;;;;;;5055511;28;20056;-83
2021/10/01 09:18:38;;;;;;;9.73;5.90;;;26.40;38.60;;;;;;5055137;28;20082;-84
2021/10/01 09:21:13;;;;;;;9.60;5.70;;;26.50;38.70;;;;;;5073328;28;20074;-85
2021/10/01 09:23:43;;;;;;;6.25;3.17;;;26.70;38.10;;;;;;5059412;28;20044;-84
2021/10/01 09:26:11;;;;;;;8.07;4.78;;;26.70;35.20;;;;;;5077334;28;20032;-84
2021/10/01 09:28:49;;;;;;;7.32;4.22;;;26.60;35.80;;;;;;5077072;28;20024;-83
2021/10/01 09:31:39;;;;;;;6.60;4.57;;;26.50;34.50;;;;;;5059362;28;20035;-83
2021/10/01 09:34:08;;;;;;;7.80;5.20;;;26.30;35.20;;;;;;5076900;28;20036;-85
2021/10/01 09:36:35;;;;;;;8.40;5.28;;;26.30;35.70;;;;;;5078560;28;20086;-83
2021/10/01 09:39:02;;;;;;;7.53;4.78;;;26.40;36.30;;;;;;5063461;28;20021;-82
2021/10/01 09:41:32;;;;;;;10.85;6.05;;;26.60;36.10;;;;;;5093643;28;20055;-84
2021/10/01 09:44:00;;;;;;;5.65;3.50;;;26.70;35.90;;;;;;5084069;28;20024;-82
2021/10/01 09:46:51;;;;;;;4.93;2.90;;;26.70;34.40;;;;;;5101391;28;20028;-83
2021/10/01 09:49:28;;;;;;;8.07;3.47;;;26.20;32.80;;;;;;5100957;28;20072;-82
2021/10/01 09:51:55;;;;;;;6.38;2.92;;;25.70;33.30;;;;;;5100110;28;20079;-81
2021/10/01 09:54:24;;;;;;;6.35;2.85;;;25.30;33.50;;;;;;5094328;28;20031;-80
2021/10/01 09:56:50;;;;;;;6.35;3.35;;;25.00;33.30;;;;;;5080174;28;20118;-82
2021/10/01 09:59:17;;;;;;;6.35;3.35;;;24.70;34.10;;;;;;5079136;28;20035;-83
2021/10/01 10:02:06;;;;;;;5.18;3.33;;;24.50;34.50;;;;;;5096763;28;20020;-82
2021/10/01 10:04:35;;;;;;;4.97;2.97;;;24.30;34.80;;;;;;5097048;28;20028;-82
2021/10/01 10:07:19;;;;;;;7.07;2.95;;;24.30;35.10;;;;;;5078872;28;20478;-84
2021/10/01 10:10:07;;;;;;;6.40;2.30;;;24.40;34.90;;;;;;5096734;28;20077;-83
2021/10/01 10:12:32;;;;;;;7.60;3.65;;;24.50;34.00;;;;;;5078832;28;20028;-81
2021/10/01 10:14:58;;;;;;;7.78;3.95;;;24.30;33.60;;;;;;5077392;28;20100;-81
2021/10/01 10:17:26;;;;;;;6.50;3.20;;;24.20;33.60;;;;;;5060582;28;20054;-82
2021/10/01 10:19:55;;;;;;;6.43;3.25;;;24.00;33.30;;;;;;5058182;28;20029;-82
2021/10/01 10:22:22;;;;;;;6.25;3.10;;;23.80;33.90;;;;;;5075970;28;20032;-81
2021/10/01 10:24:48;;;;;;;6.50;3.03;;;23.70;34.10;;;;;;5076310;28;20032;-82
2021/10/01 10:27:14;;;;;;;7.88;3.60;;;23.80;34.10;;;;;;5075718;28;20383;-81
2021/10/01 10:29:43;;;;;;;10.20;6.18;;;23.70;34.40;;;;;;5075604;28;20020;-81
2021/10/01 10:32:14;;;;;;;7.53;4.07;;;23.70;34.00;;;;;;5075791;28;20029;-82
2021/10/01 10:35:01;;;;;;;10.70;3.80;;;23.60;34.40;;;;;;5056888;28;20467;-81
2021/10/01 10:37:44;;;;;;;6.50;4.00;;;23.70;34.00;;;;;;5076135;28;20108;-81
2021/10/01 10:40:10;;;;;;;10.27;5.50;;;23.60;34.20;;;;;;5057871;28;20035;-81
2021/10/01 10:42:40;;;;;;;5.28;3.22;;;23.70;33.90;;;;;;5064106;28;20173;-81
2021/10/01 10:45:09;;;;;;;3.65;2.33;;;23.60;34.20;;;;;;5095893;28;20028;-81
2021/10/01 10:47:52;;;;;;;3.80;2.20;;;23.60;34.40;;;;;;5077829;28;20056;-81
2021/10/01 10:50:50;;;;;;;8.23;2.97;;;23.50;34.00;;;;;;5095055;28;20024;-82
2021/10/01 10:53:20;;;;;;;8.52;6.95;;;23.00;34.10;;;;;;5058310;28;20043;-80
2021/10/01 10:55:50;;;;;;;12.15;7.32;;;22.80;34.30;;;;;;5095397;28;20032;-81
2021/10/01 10:58:32;;;;;;;16.48;7.30;;;22.80;34.90;;;;;;5077621;28;20396;-82
2021/10/01 11:01:23;;;;;;;6.13;2.95;;;23.00;35.10;;;;;;5079562;28;20085;-81
2021/10/01 11:03:54;;;;;;;6.05;3.65;;;23.10;35.20;;;;;;5066605;28;20043;-82
2021/10/01 11:06:20;;;;;;;9.30;4.57;;;23.30;35.20;;;;;;5077410;28;20048;-81
2021/10/01 11:08:49;;;;;;;9.27;4.88;;;23.20;35.20;;;;;;5077297;28;20051;-81
2021/10/01 11:11:32;;;;;;;10.98;4.05;;;23.10;35.10;;;;;;5095261;28;20103;-81
2021/10/01 11:14:22;;;;;;;6.43;3.50;;;23.20;35.10;;;;;;5077348;28;20091;-82
2021/10/01 11:16:53;;;;;;;5.90;3.55;;;23.20;34.90;;;;;;5083320;28;20052;-81
2021/10/01 11:19:34;;;;;;;8.35;4.80;;;23.00;35.00;;;;;;5097334;28;20055;-81
2021/10/01 11:22:00;;;;;;;6.70;3.75;;;22.80;36.00;;;;;;5097921;28;20031;-82
2021/10/01 11:24:26;;;;;;;7.28;3.42;;;23.00;35.70;;;;;;5084097;28;20024;-82
2021/10/01 11:26:55;;;;;;;6.35;3.42;;;23.30;35.40;;;;;;5062821;28;20039;-82
2021/10/01 11:29:30;;;;;;;7.20;3.42;;;23.40;35.20;;;;;;5067196;28;20078;-82
2021/10/01 11:32:00;;;;;;;6.75;3.58;;;23.50;35.50;;;;;;5069818;28;20016;-82
2021/10/01 11:34:54;;;;;;;7.90;4.55;;;23.60;35.30;;;;;;5064813;28;20031;-79
2021/10/01 11:37:20;;;;;;;5.78;3.80;;;23.70;35.20;;;;;;5078177;28;20028;-81
2021/10/01 11:39:46;;;;;;;8.10;4.47;;;23.70;35.10;;;;;;5086217;28;20016;-81
2021/10/01 11:42:21;;;;;;;6.18;3.70;;;23.80;35.10;;;;;;5077865;28;20032;-81
2021/10/01 11:44:47;;;;;;;;;;;23.60;34.90;;;;;;5062050;28;20032;-81
2021/10/01 11:47:12;;;;;;;9.63;6.10;;;23.70;35.40;;;;;;5079316;28;19918;-79
2021/10/01 11:49:38;;;;;;;6.93;4.18;;;23.60;35.70;;;;;;5095564;28;20091;-81
2021/10/01 11:52:09;;;;;;;8.15;3.55;;;23.50;35.70;;;;;;5076488;28;20028;-81
2021/10/01 11:54:36;;;;;;;8.90;3.78;;;23.40;35.70;;;;;;5094379;28;20032;-81
2021/10/01 11:57:06;;;;;;;5.80;3.22;;;23.30;36.40;;;;;;5076013;28;20028;-79
2021/10/01 11:59:58;;;;;;;7.53;3.53;;;23.10;36.30;;;;;;5094729;28;20107;-81
2021/10/01 12:02:29;;;;;;;7.40;3.40;;;22.90;36.20;;;;;;5076659;28;20028;-81
2021/10/01 12:04:55;;;;;;;7.28;4.55;;;22.50;36.60;;;;;;5076300;28;20024;-80
2021/10/01 12:07:21;;;;;;;5.38;3.10;;;22.20;37.30;;;;;;5093970;28;20079;-78
2021/10/01 12:10:08;;;;;;;8.93;3.70;;;21.90;37.70;;;;;;5094255;28;20031;-82
2021/10/01 12:12:33;;;;;;;8.27;4.72;;;21.50;38.30;;;;;;5083799;28;20020;-81
2021/10/01 12:15:00;;;;;;;5.85;4.05;;;21.10;38.90;;;;;;5057051;28;20466;-81
2021/10/01 12:17:26;;;;;;;7.30;3.53;;;20.80;39.20;;;;;;5073830;28;20069;-81
2021/10/01 12:19:59;;;;;;;5.20;3.45;;;20.40;39.80;;;;;;5073942;28;20039;-80
2021/10/01 12:22:28;;;;;;;9.35;3.90;;;19.90;40.20;;;;;;5054086;28;20033;-81
2021/10/01 12:24:55;;;;;;;6.95;4.28;;;19.40;40.70;;;;;;5036097;28;20483;-80
2021/10/01 12:27:33;;;;;;;7.80;3.60;;;19.10;41.30;;;;;;5053525;28;20460;-80
2021/10/01 12:29:58;;;;;;;8.70;4.00;;;18.80;42.50;;;;;;5035776;28;20079;-80
2021/10/01 12:32:24;;;;;;;8.27;4.68;;;18.60;42.90;;;;;;5053649;28;20032;-80
2021/10/01 12:34:56;;;;;;;6.40;3.70;;;18.40;43.20;;;;;;5053477;28;20029;-81
2021/10/01 12:37:24;;;;;;;9.02;4.07;;;18.20;43.60;;;;;;5053692;28;20036;-79
2021/10/01 12:40:03;;;;;;;7.28;4.18;;;18.00;43.80;;;;;;5053626;28;20052;-81
2021/10/01 12:42:37;;;;;;;7.50;4.10;;;17.90;44.60;;;;;;5035533;28;20025;-80
2021/10/01 12:45:08;;;;;;;9.63;4.30;;;17.70;44.80;;;;;;5035292;28;20391;-83
2021/10/01 12:47:36;;;;;;;10.82;4.70;;;17.60;45.40;;;;;;5060252;28;20057;-83
2021/10/01 12:50:05;;;;;;;11.77;5.57;;;17.50;45.90;;;;;;5075851;28;20029;-84
2021/10/01 12:52:31;;;;;;;8.05;4.50;;;17.60;46.10;;;;;;5075040;28;20020;-84
2021/10/01 12:55:00;;;;;;;7.22;3.97;;;17.60;45.80;;;;;;5074686;28;20039;-79
2021/10/01 12:57:28;;;;;;;5.90;3.83;;;17.60;45.60;;;;;;5096420;28;20370;-81
2021/10/01 12:59:55;;;;;;;7.07;4.03;;;17.50;45.80;;;;;;5100968;28;20032;-82
2021/10/01 13:02:21;;;;;;;9.23;4.93;;;17.40;46.00;;;;;;5102040;28;20374;-81
2021/10/01 13:04:59;;;;;;;7.55;4.82;;;17.30;46.40;;;;;;5083538;28;20107;-81
2021/10/01 13:08:11;;;;;;;8.27;4.45;;;17.20;46.80;;;;;;5085059;28;20044;-82
2021/10/01 13:10:49;;;;;;;6.35;4.05;;;17.10;47.30;;;;;;5092430;28;20099;-82
2021/10/01 13:13:27;;;;;;;5.82;4.13;;;17.00;47.50;;;;;;5073640;28;20025;-83
2021/10/01 13:15:57;;;;;;;6.75;4.18;;;16.90;47.20;;;;;;5086043;28;20127;-82
2021/10/01 13:18:27;;;;;;;8.27;4.85;;;16.80;47.50;;;;;;5061653;28;20467;-82
2021/10/01 13:21:14;;;;;;;8.20;4.20;;;16.70;47.40;;;;;;5060295;28;20027;-81
2021/10/01 13:24:00;;;;;;;8.52;4.38;;;16.70;47.90;;;;;;5059690;28;20048;-82
2021/10/01 13:26:40;;;;;;;9.30;4.50;;;16.60;48.60;;;;;;5058935;28;20052;-81
2021/10/01 13:29:10;;;;;;;8.45;4.88;;;16.60;48.70;;;;;;5077349;28;20374;-79
2021/10/01 13:31:44;;;;;;;9.27;4.90;;;16.60;48.60;;;;;;5059341;28;20033;-82
2021/10/01 13:34:12;;;;;;;16.65;9.95;;;16.60;48.50;;;;;;5059480;28;20067;-83
2021/10/01 13:36:38;;;;;;;9.77;5.80;;;16.60;48.60;;;;;;5059147;28;20039;-83
2021/10/01 13:39:05;;;;;;;10.18;5.07;;;16.50;48.30;;;;;;5065169;28;20363;-82
2021/10/01 13:41:30;;;;;;;8.05;4.68;;;16.40;48.40;;;;;;5097120;28;20190;-82
2021/10/01 13:43:56;;;;;;;8.68;5.05;;;16.40;48.40;;;;;;5097250;28;20059;-82
2021/10/01 13:46:23;;;;;;;8.82;4.18;;;16.30;48.70;;;;;;5096546;28;20024;-82
2021/10/01 13:48:50;;;;;;;11.07;6.07;;;16.30;48.50;;;;;;5096595;28;20024;-82
2021/10/01 13:51:16;;;;;;;8.23;5.05;;;16.30;48.60;;;;;;5096738;28;20020;-82
2021/10/01 13:53:42;;;;;;;8.30;4.80;;;16.20;48.60;;;;;;5096506;28;20489;-81
2021/10/01 13:56:07;;;;;;;8.80;5.50;;;16.10;48.80;;;;;;5096861;28;20058;-82
2021/10/01 13:58:34;;;;;;;11.52;7.22;;;16.10;48.90;;;;;;5079019;28;20047;-82
2021/10/01 14:01:00;;;;;;;10.68;5.57;;;16.10;49.20;;;;;;5096848;28;20436;-82
2021/10/01 14:03:26;;;;;;;7.43;4.80;;;16.10;49.60;;;;;;5078503;28;20371;-82
2021/10/01 14:05:52;;;;;;;8.73;5.22;;;16.10;50.10;;;;;;5074381;28;20074;-81
2021/10/01 14:08:19;;;;;;;11.55;4.95;;;16.00;49.20;;;;;;5095993;28;20541;-81
2021/10/01 14:10:45;;;;;;;8.82;4.18;;;16.00;49.30;;;;;;5078600;28;20127;-82
2021/10/01 14:13:12;;;;;;;13.27;6.07;;;16.00;49.50;;;;;;5095901;28;20032;-81
2021/10/01 14:15:40;;;;;;;13.27;6.30;;;15.90;49.90;;;;;;5076228;28;20123;-80
2021/10/01 14:18:06;;;;;;;8.27;4.88;;;15.90;50.10;;;;;;5077702;28;20034;-82